createdAt,value
2018-06-20T00:01:01.248Z,0
2018-06-20T00:02:09.894Z,0
2018-06-20T00:03:18.549Z,0
2018-06-20T00:04:27.196Z,0
2018-06-20T00:05:36.106Z,0
2018-06-20T00:06:45.013Z,0
2018-06-20T00:07:53.665Z,0
2018-06-20T00:09:02.319Z,0
2018-06-20T00:10:10.961Z,0
2018-06-20T00:11:19.603Z,0
2018-06-20T00:12:28.262Z,0
2018-06-20T00:13:36.911Z,0
2018-06-20T00:14:45.563Z,0
2018-06-20T00:15:54.202Z,0
2018-06-20T00:17:02.856Z,0
2018-06-20T00:18:11.501Z,0
2018-06-20T00:19:20.155Z,0
2018-06-20T00:20:29.066Z,0
2018-06-20T00:21:37.711Z,0
2018-06-20T00:22:46.359Z,0
2018-06-20T00:23:55.008Z,0
2018-06-20T00:25:03.661Z,0
2018-06-20T00:26:12.315Z,0
2018-06-20T00:27:20.961Z,0
2018-06-20T00:28:29.609Z,0
2018-06-20T00:29:38.266Z,0
2018-06-20T00:30:46.904Z,0
2018-06-20T00:31:55.822Z,0
2018-06-20T00:33:04.463Z,0
2018-06-20T00:34:13.122Z,0
2018-06-20T00:35:21.768Z,0
2018-06-20T00:36:30.411Z,0
2018-06-20T00:37:39.057Z,0
2018-06-20T00:38:47.704Z,0
2018-06-20T00:39:56.359Z,0
2018-06-20T00:41:05.004Z,0
2018-06-20T00:42:13.659Z,0
2018-06-20T00:43:22.293Z,0
2018-06-20T00:44:30.954Z,0
2018-06-20T00:45:39.858Z,0
2018-06-20T00:46:48.775Z,0
2018-06-20T00:47:57.414Z,0
2018-06-20T00:49:06.072Z,0
2018-06-20T00:50:14.719Z,0
2018-06-20T00:51:23.369Z,0
2018-06-20T00:52:32.007Z,0
2018-06-20T00:53:40.660Z,0
2018-06-20T00:54:49.314Z,0
2018-06-20T00:55:58.231Z,0
2018-06-20T00:57:06.876Z,0
2018-06-20T00:58:15.775Z,0
2018-06-20T00:59:24.427Z,0
2018-06-20T01:00:33.070Z,0
2018-06-20T01:01:41.726Z,0
2018-06-20T01:02:50.366Z,0
2018-06-20T01:03:59.015Z,0
2018-06-20T01:05:07.921Z,0
2018-06-20T01:06:16.578Z,0
2018-06-20T01:07:25.224Z,0
2018-06-20T01:08:33.874Z,0
2018-06-20T01:09:42.524Z,0
2018-06-20T01:10:51.180Z,0
2018-06-20T01:12:00.449Z,0
2018-06-20T01:13:09.093Z,0
2018-06-20T01:14:17.735Z,0
2018-06-20T01:15:26.380Z,0
2018-06-20T01:16:35.307Z,0
2018-06-20T01:17:44.741Z,0
2018-06-20T01:18:53.655Z,0
2018-06-20T01:20:02.290Z,0
2018-06-20T01:21:10.945Z,0
2018-06-20T01:22:19.590Z,0
2018-06-20T01:23:28.240Z,0
2018-06-20T01:24:36.881Z,0
2018-06-20T01:25:45.537Z,0
2018-06-20T01:26:54.183Z,0
2018-06-20T01:28:02.831Z,0
2018-06-20T01:29:11.474Z,0
2018-06-20T01:30:20.128Z,0
2018-06-20T01:31:28.775Z,0
2018-06-20T01:32:37.428Z,0
2018-06-20T01:33:46.075Z,0
2018-06-20T01:34:54.719Z,0
2018-06-20T01:36:03.643Z,0
2018-06-20T01:37:12.286Z,0
2018-06-20T01:38:20.937Z,0
2018-06-20T01:39:29.580Z,0
2018-06-20T01:40:38.227Z,0
2018-06-20T01:41:46.874Z,0
2018-06-20T01:42:55.527Z,0
2018-06-20T01:44:04.167Z,0
2018-06-20T01:45:12.813Z,0
2018-06-20T01:46:21.459Z,0
2018-06-20T01:47:30.111Z,0
2018-06-20T01:48:38.759Z,0
2018-06-20T01:49:47.408Z,0
2018-06-20T01:50:56.319Z,0
2018-06-20T01:52:04.965Z,0
2018-06-20T01:53:13.617Z,0
2018-06-20T01:54:22.265Z,0
2018-06-20T01:55:30.994Z,0
2018-06-20T01:56:39.560Z,0
2018-06-20T01:57:48.213Z,0
2018-06-20T01:58:56.858Z,0
2018-06-20T02:00:05.505Z,0
2018-06-20T02:01:14.149Z,0
2018-06-20T02:02:22.802Z,0
2018-06-20T02:03:31.447Z,0
2018-06-20T02:04:40.098Z,0
2018-06-20T02:05:48.741Z,0
2018-06-20T02:06:57.390Z,0
2018-06-20T02:08:06.048Z,0
2018-06-20T02:09:14.687Z,0
2018-06-20T02:10:23.346Z,0
2018-06-20T02:11:31.989Z,0
2018-06-20T02:12:40.635Z,0
2018-06-20T02:13:49.555Z,0
2018-06-20T02:14:58.473Z,0
2018-06-20T02:16:07.119Z,0
2018-06-20T02:17:15.769Z,0
2018-06-20T02:18:24.420Z,0
2018-06-20T02:19:33.072Z,0
2018-06-20T02:20:42.242Z,0
2018-06-20T02:21:50.892Z,0
2018-06-20T02:22:59.538Z,0
2018-06-20T02:24:08.191Z,0
2018-06-20T02:25:16.842Z,0
2018-06-20T02:26:25.486Z,0
2018-06-20T02:27:34.135Z,0
2018-06-20T02:28:42.785Z,0
2018-06-20T02:29:51.434Z,0
2018-06-20T02:31:00.077Z,0
2018-06-20T02:32:08.731Z,0
2018-06-20T02:33:17.646Z,0
2018-06-20T02:34:26.300Z,0
2018-06-20T02:35:35.209Z,4
2018-06-20T02:36:43.987Z,4
2018-06-20T02:37:52.510Z,0
2018-06-20T02:39:01.164Z,0
2018-06-20T02:40:10.355Z,4
2018-06-20T02:41:19.006Z,4
2018-06-20T02:42:27.661Z,4
2018-06-20T02:43:36.307Z,4
2018-06-20T02:44:45.768Z,4
2018-06-20T02:45:54.416Z,4
2018-06-20T02:47:03.333Z,4
2018-06-20T02:48:11.991Z,4
2018-06-20T02:49:20.638Z,4
2018-06-20T02:50:29.289Z,8
2018-06-20T02:51:37.937Z,4
2018-06-20T02:52:47.147Z,8
2018-06-20T02:53:55.766Z,4
2018-06-20T02:55:04.417Z,8
2018-06-20T02:56:13.065Z,8
2018-06-20T02:57:21.716Z,8
2018-06-20T02:58:30.370Z,12
2018-06-20T02:59:39.027Z,16
2018-06-20T03:00:47.933Z,16
2018-06-20T03:01:56.780Z,16
2018-06-20T03:03:06.203Z,20
2018-06-20T03:04:14.949Z,16
2018-06-20T03:05:23.970Z,20
2018-06-20T03:06:32.707Z,20
2018-06-20T03:07:41.643Z,24
2018-06-20T03:08:50.830Z,24
2018-06-20T03:09:59.485Z,24
2018-06-20T03:11:08.134Z,24
2018-06-20T03:12:17.045Z,28
2018-06-20T03:13:25.696Z,32
2018-06-20T03:14:34.353Z,36
2018-06-20T03:15:43.010Z,36
2018-06-20T03:16:51.928Z,40
2018-06-20T03:18:00.579Z,40
2018-06-20T03:19:09.497Z,44
2018-06-20T03:20:18.147Z,48
2018-06-20T03:21:26.797Z,52
2018-06-20T03:22:35.444Z,56
2018-06-20T03:23:44.617Z,60
2018-06-20T03:24:53.538Z,60
2018-06-20T03:26:02.188Z,64
2018-06-20T03:27:10.838Z,72
2018-06-20T03:28:19.477Z,76
2018-06-20T03:29:28.396Z,84
2018-06-20T03:30:37.574Z,88
2018-06-20T03:31:46.493Z,92
2018-06-20T03:32:55.130Z,96
2018-06-20T03:34:03.786Z,104
2018-06-20T03:35:12.435Z,104
2018-06-20T03:36:21.089Z,108
2018-06-20T03:37:29.730Z,112
2018-06-20T03:38:38.378Z,116
2018-06-20T03:39:47.029Z,116
2018-06-20T03:40:55.681Z,116
2018-06-20T03:42:04.334Z,120
2018-06-20T03:43:12.971Z,124
2018-06-20T03:44:21.622Z,132
2018-06-20T03:45:30.267Z,148
2018-06-20T03:46:38.927Z,160
2018-06-20T03:47:47.569Z,172
2018-06-20T03:48:56.222Z,184
2018-06-20T03:50:04.863Z,192
2018-06-20T03:51:13.520Z,200
2018-06-20T03:52:22.159Z,200
2018-06-20T03:53:30.810Z,212
2018-06-20T03:54:39.455Z,228
2018-06-20T03:55:48.113Z,244
2018-06-20T03:56:56.759Z,256
2018-06-20T03:58:05.407Z,272
2018-06-20T03:59:14.050Z,284
2018-06-20T04:00:22.697Z,300
2018-06-20T04:01:31.352Z,292
2018-06-20T04:02:39.998Z,284
2018-06-20T04:03:48.914Z,284
2018-06-20T04:04:57.552Z,288
2018-06-20T04:06:06.215Z,288
2018-06-20T04:07:15.137Z,292
2018-06-20T04:08:23.790Z,316
2018-06-20T04:09:32.429Z,332
2018-06-20T04:10:41.362Z,340
2018-06-20T04:11:50.004Z,352
2018-06-20T04:12:58.654Z,372
2018-06-20T04:14:07.297Z,404
2018-06-20T04:15:15.949Z,428
2018-06-20T04:16:24.613Z,456
2018-06-20T04:17:33.257Z,460
2018-06-20T04:18:41.914Z,448
2018-06-20T04:19:50.547Z,436
2018-06-20T04:20:59.201Z,452
2018-06-20T04:22:07.855Z,484
2018-06-20T04:23:16.781Z,528
2018-06-20T04:24:25.685Z,564
2018-06-20T04:25:34.339Z,584
2018-06-20T04:26:42.984Z,604
2018-06-20T04:27:51.641Z,640
2018-06-20T04:29:00.283Z,692
2018-06-20T04:30:08.937Z,748
2018-06-20T04:31:17.847Z,784
2018-06-20T04:32:26.504Z,820
2018-06-20T04:33:35.148Z,864
2018-06-20T04:34:43.844Z,908
2018-06-20T04:35:52.438Z,944
2018-06-20T04:37:01.082Z,964
2018-06-20T04:38:09.739Z,980
2018-06-20T04:39:18.382Z,992
2018-06-20T04:40:27.036Z,1004
2018-06-20T04:41:35.935Z,1048
2018-06-20T04:42:44.592Z,1084
2018-06-20T04:43:53.494Z,1144
2018-06-20T04:45:02.427Z,1208
2018-06-20T04:46:11.069Z,1260
2018-06-20T04:47:19.724Z,1336
2018-06-20T04:48:28.369Z,1420
2018-06-20T04:49:37.288Z,1524
2018-06-20T04:50:45.928Z,1640
2018-06-20T04:51:54.578Z,1772
2018-06-20T04:53:03.230Z,1924
2018-06-20T04:54:11.881Z,2008
2018-06-20T04:55:20.537Z,2080
2018-06-20T04:56:29.181Z,2172
2018-06-20T04:57:37.831Z,2244
2018-06-20T04:58:46.475Z,2264
2018-06-20T04:59:55.136Z,2296
2018-06-20T05:01:03.775Z,2428
2018-06-20T05:02:12.431Z,2584
2018-06-20T05:03:21.076Z,2688
2018-06-20T05:04:29.732Z,2732
2018-06-20T05:05:38.384Z,2800
2018-06-20T05:06:47.022Z,2848
2018-06-20T05:07:55.673Z,2884
2018-06-20T05:09:04.590Z,3004
2018-06-20T05:10:13.238Z,3208
2018-06-20T05:11:22.145Z,3260
2018-06-20T05:12:30.790Z,3220
2018-06-20T05:13:39.436Z,3160
2018-06-20T05:14:48.093Z,3120
2018-06-20T05:15:57.000Z,3092
2018-06-20T05:17:05.655Z,3092
2018-06-20T05:18:14.294Z,3160
2018-06-20T05:19:22.951Z,3316
2018-06-20T05:20:32.136Z,3500
2018-06-20T05:21:40.787Z,3560
2018-06-20T05:22:49.797Z,3504
2018-06-20T05:23:58.451Z,3404
2018-06-20T05:25:07.096Z,3460
2018-06-20T05:26:15.747Z,3576
2018-06-20T05:27:24.390Z,3784
2018-06-20T05:28:33.312Z,3964
2018-06-20T05:29:41.959Z,4168
2018-06-20T05:30:50.609Z,4104
2018-06-20T05:31:59.259Z,4228
2018-06-20T05:33:07.903Z,4344
2018-06-20T05:34:16.553Z,4620
2018-06-20T05:35:25.202Z,4524
2018-06-20T05:36:33.859Z,4564
2018-06-20T05:37:42.764Z,4684
2018-06-20T05:38:51.731Z,4624
2018-06-20T05:40:00.646Z,4484
2018-06-20T05:41:09.299Z,4360
2018-06-20T05:42:17.943Z,4460
2018-06-20T05:43:26.596Z,4512
2018-06-20T05:44:35.250Z,4640
2018-06-20T05:45:43.913Z,4696
2018-06-20T05:46:53.116Z,4716
2018-06-20T05:48:01.764Z,4748
2018-06-20T05:49:10.673Z,4936
2018-06-20T05:50:19.320Z,5112
2018-06-20T05:51:27.975Z,5296
2018-06-20T05:52:36.621Z,5300
2018-06-20T05:53:45.596Z,5208
2018-06-20T05:54:54.181Z,5064
2018-06-20T05:56:02.837Z,4964
2018-06-20T05:57:11.753Z,5120
2018-06-20T05:58:20.408Z,5020
2018-06-20T05:59:29.053Z,4876
2018-06-20T06:00:37.709Z,4520
2018-06-20T06:01:46.619Z,4344
2018-06-20T06:02:55.271Z,4284
2018-06-20T06:04:03.915Z,3924
2018-06-20T06:05:12.611Z,3732
2018-06-20T06:06:21.484Z,3632
2018-06-20T06:07:30.140Z,3576
2018-06-20T06:08:38.793Z,3576
2018-06-20T06:09:47.439Z,3596
2018-06-20T06:10:56.359Z,3644
2018-06-20T06:12:05.435Z,3704
2018-06-20T06:13:14.644Z,3784
2018-06-20T06:14:23.289Z,3884
2018-06-20T06:15:31.945Z,3848
2018-06-20T06:16:40.588Z,3852
2018-06-20T06:17:49.246Z,3884
2018-06-20T06:18:58.414Z,3716
2018-06-20T06:20:07.331Z,3604
2018-06-20T06:21:15.994Z,3640
2018-06-20T06:22:24.903Z,3652
2018-06-20T06:23:33.559Z,3636
2018-06-20T06:24:42.210Z,3576
2018-06-20T06:25:50.865Z,3628
2018-06-20T06:26:59.521Z,3728
2018-06-20T06:28:08.429Z,3988
2018-06-20T06:29:17.078Z,4180
2018-06-20T06:30:25.728Z,4312
2018-06-20T06:31:34.388Z,4468
2018-06-20T06:32:43.065Z,4468
2018-06-20T06:33:51.717Z,4528
2018-06-20T06:35:00.374Z,4492
2018-06-20T06:36:09.032Z,4520
2018-06-20T06:37:17.679Z,4428
2018-06-20T06:38:26.334Z,4336
2018-06-20T06:39:34.980Z,4316
2018-06-20T06:40:43.634Z,4412
2018-06-20T06:41:52.283Z,4408
2018-06-20T06:43:00.934Z,4172
2018-06-20T06:44:09.583Z,3928
2018-06-20T06:45:18.496Z,3888
2018-06-20T06:46:27.153Z,3844
2018-06-20T06:47:36.063Z,3860
2018-06-20T06:48:44.712Z,3884
2018-06-20T06:49:53.434Z,3584
2018-06-20T06:51:02.009Z,3084
2018-06-20T06:52:10.660Z,2676
2018-06-20T06:53:19.579Z,2552
2018-06-20T06:54:28.225Z,2720
2018-06-20T06:55:36.879Z,3032
2018-06-20T06:56:45.524Z,3444
2018-06-20T06:57:54.437Z,3824
2018-06-20T06:59:03.348Z,4216
2018-06-20T07:00:12.000Z,4648
2018-06-20T07:01:20.650Z,4960
2018-06-20T07:02:29.571Z,5120
2018-06-20T07:03:38.223Z,5144
2018-06-20T07:04:46.869Z,5092
2018-06-20T07:05:55.519Z,5212
2018-06-20T07:07:04.170Z,5376
2018-06-20T07:08:13.091Z,5660
2018-06-20T07:09:22.535Z,5592
2018-06-20T07:10:31.141Z,5748
2018-06-20T07:11:39.792Z,5952
2018-06-20T07:12:48.457Z,6100
2018-06-20T07:13:57.105Z,6192
2018-06-20T07:15:06.023Z,6208
2018-06-20T07:16:14.670Z,6108
2018-06-20T07:17:23.330Z,6328
2018-06-20T07:18:31.980Z,6536
2018-06-20T07:19:40.631Z,6340
2018-06-20T07:20:49.548Z,6284
2018-06-20T07:21:58.196Z,6652
2018-06-20T07:23:06.855Z,6696
2018-06-20T07:24:15.705Z,6152
2018-06-20T07:25:24.589Z,6508
2018-06-20T07:26:33.228Z,5596
2018-06-20T07:27:41.889Z,5204
2018-06-20T07:28:50.539Z,5668
2018-06-20T07:29:59.572Z,6224
2018-06-20T07:31:08.463Z,6668
2018-06-20T07:32:17.127Z,6556
2018-06-20T07:33:25.776Z,6516
2018-06-20T07:34:34.517Z,6300
2018-06-20T07:35:43.172Z,6524
2018-06-20T07:36:51.727Z,6576
2018-06-20T07:38:00.386Z,6668
2018-06-20T07:39:09.042Z,6940
2018-06-20T07:40:17.702Z,6896
2018-06-20T07:41:26.344Z,7180
2018-06-20T07:42:35.003Z,7516
2018-06-20T07:43:43.653Z,7100
2018-06-20T07:44:52.313Z,5928
2018-06-20T07:46:00.954Z,5776
2018-06-20T07:47:09.611Z,6156
2018-06-20T07:48:18.525Z,6188
2018-06-20T07:49:27.449Z,5732
2018-06-20T07:50:36.127Z,4616
2018-06-20T07:51:45.039Z,3596
2018-06-20T07:52:53.686Z,2848
2018-06-20T07:54:02.347Z,2664
2018-06-20T07:55:11.001Z,3240
2018-06-20T07:56:19.649Z,4176
2018-06-20T07:57:28.300Z,4884
2018-06-20T07:58:36.951Z,5440
2018-06-20T07:59:45.609Z,5812
2018-06-20T08:00:54.376Z,6128
2018-06-20T08:02:02.923Z,6412
2018-06-20T08:03:11.829Z,6516
2018-06-20T08:04:20.489Z,6576
2018-06-20T08:05:29.136Z,6720
2018-06-20T08:06:37.796Z,6696
2018-06-20T08:07:46.444Z,6820
2018-06-20T08:08:55.102Z,6948
2018-06-20T08:10:03.752Z,7032
2018-06-20T08:11:12.406Z,7116
2018-06-20T08:12:21.114Z,6836
2018-06-20T08:13:29.703Z,6972
2018-06-20T08:14:38.369Z,7124
2018-06-20T08:15:47.025Z,7208
2018-06-20T08:16:55.680Z,6884
2018-06-20T08:18:04.585Z,6936
2018-06-20T08:19:13.239Z,7048
2018-06-20T08:20:21.891Z,7392
2018-06-20T08:21:30.547Z,7148
2018-06-20T08:22:39.191Z,7308
2018-06-20T08:23:47.842Z,7400
2018-06-20T08:24:56.497Z,7392
2018-06-20T08:26:05.152Z,7732
2018-06-20T08:27:13.800Z,6920
2018-06-20T08:28:22.458Z,6368
2018-06-20T08:29:31.104Z,5436
2018-06-20T08:30:39.758Z,4784
2018-06-20T08:31:48.408Z,4608
2018-06-20T08:32:57.060Z,4396
2018-06-20T08:34:05.709Z,3896
2018-06-20T08:35:14.889Z,3196
2018-06-20T08:36:23.814Z,2824
2018-06-20T08:37:32.470Z,2808
2018-06-20T08:38:41.124Z,3152
2018-06-20T08:39:49.768Z,4124
2018-06-20T08:40:58.426Z,5596
2018-06-20T08:42:07.093Z,6608
2018-06-20T08:43:16.006Z,6336
2018-06-20T08:44:24.923Z,5984
2018-06-20T08:45:33.580Z,5760
2018-06-20T08:46:42.229Z,5380
2018-06-20T08:47:50.886Z,5292
2018-06-20T08:48:59.532Z,5420
2018-06-20T08:50:08.188Z,5480
2018-06-20T08:51:16.840Z,5140
2018-06-20T08:52:25.755Z,4952
2018-06-20T08:53:34.411Z,4896
2018-06-20T08:54:43.062Z,5064
2018-06-20T08:55:51.711Z,5492
2018-06-20T08:57:00.363Z,6276
2018-06-20T08:58:09.025Z,7504
2018-06-20T08:59:17.676Z,6692
2018-06-20T09:00:26.328Z,6140
2018-06-20T09:01:34.984Z,5468
2018-06-20T09:02:43.642Z,4832
2018-06-20T09:03:52.298Z,4444
2018-06-20T09:05:00.952Z,4416
2018-06-20T09:06:09.604Z,4204
2018-06-20T09:07:18.271Z,4428
2018-06-20T09:08:26.918Z,5360
2018-06-20T09:09:35.577Z,6248
2018-06-20T09:10:44.227Z,6808
2018-06-20T09:11:52.875Z,6948
2018-06-20T09:13:01.810Z,6492
2018-06-20T09:14:10.723Z,6104
2018-06-20T09:15:19.383Z,6120
2018-06-20T09:16:28.029Z,6456
2018-06-20T09:17:36.690Z,6772
2018-06-20T09:18:45.338Z,6780
2018-06-20T09:19:54.003Z,7256
2018-06-20T09:21:02.911Z,6728
2018-06-20T09:22:11.575Z,6868
2018-06-20T09:23:20.224Z,7156
2018-06-20T09:24:28.883Z,6952
2018-06-20T09:25:37.804Z,6604
2018-06-20T09:26:46.503Z,6348
2018-06-20T09:27:55.224Z,7148
2018-06-20T09:29:03.884Z,6736
2018-06-20T09:30:12.544Z,7044
2018-06-20T09:31:21.186Z,7144
2018-06-20T09:32:29.843Z,7268
2018-06-20T09:33:38.492Z,7380
2018-06-20T09:34:47.154Z,7244
2018-06-20T09:35:55.797Z,8160
2018-06-20T09:37:04.456Z,7632
2018-06-20T09:38:13.379Z,6420
2018-06-20T09:39:22.300Z,6740
2018-06-20T09:40:30.944Z,6920
2018-06-20T09:41:39.599Z,6380
2018-06-20T09:42:48.249Z,6076
2018-06-20T09:43:56.911Z,6088
2018-06-20T09:45:05.564Z,6600
2018-06-20T09:46:14.211Z,7032
2018-06-20T09:47:22.863Z,8484
2018-06-20T09:48:31.773Z,8808
2018-06-20T09:49:40.441Z,8988
2018-06-20T09:50:49.616Z,9268
2018-06-20T09:51:58.275Z,8164
2018-06-20T09:53:07.181Z,8088
2018-06-20T09:54:15.908Z,7860
2018-06-20T09:55:24.805Z,7556
2018-06-20T09:56:33.461Z,7560
2018-06-20T09:57:42.373Z,7560
2018-06-20T09:58:51.035Z,7200
2018-06-20T09:59:59.688Z,6832
2018-06-20T10:01:08.343Z,6616
2018-06-20T10:02:16.988Z,6772
2018-06-20T10:03:25.644Z,7168
2018-06-20T10:04:34.304Z,7620
2018-06-20T10:05:42.958Z,7884
2018-06-20T10:06:52.034Z,9200
2018-06-20T10:08:00.541Z,8492
2018-06-20T10:09:09.205Z,7544
2018-06-20T10:10:18.114Z,7316
2018-06-20T10:11:26.777Z,7164
2018-06-20T10:12:35.421Z,7556
2018-06-20T10:13:44.084Z,7392
2018-06-20T10:14:52.732Z,7764
2018-06-20T10:16:01.387Z,7352
2018-06-20T10:17:10.313Z,6876
2018-06-20T10:18:18.963Z,6804
2018-06-20T10:19:27.618Z,7492
2018-06-20T10:20:36.262Z,6720
2018-06-20T10:21:44.920Z,7056
2018-06-20T10:22:53.854Z,7228
2018-06-20T10:24:02.780Z,7436
2018-06-20T10:25:11.438Z,7756
2018-06-20T10:26:20.085Z,7688
2018-06-20T10:27:28.743Z,7412
2018-06-20T10:28:37.405Z,7224
2018-06-20T10:29:46.056Z,7132
2018-06-20T10:30:54.703Z,7152
2018-06-20T10:32:03.359Z,7044
2018-06-20T10:33:12.008Z,7144
2018-06-20T10:34:20.867Z,6920
2018-06-20T10:35:29.323Z,7244
2018-06-20T10:36:38.508Z,5872
2018-06-20T10:37:47.424Z,5312
2018-06-20T10:38:56.090Z,5080
2018-06-20T10:40:04.795Z,5316
2018-06-20T10:41:13.658Z,5672
2018-06-20T10:42:22.574Z,7668
2018-06-20T10:43:31.230Z,6580
2018-06-20T10:44:40.165Z,7052
2018-06-20T10:45:48.801Z,8308
2018-06-20T10:46:57.724Z,6508
2018-06-20T10:48:06.368Z,5556
2018-06-20T10:49:15.069Z,5264
2018-06-20T10:50:23.992Z,4420
2018-06-20T10:51:32.650Z,5004
2018-06-20T10:52:41.824Z,6968
2018-06-20T10:53:50.492Z,7204
2018-06-20T10:54:59.140Z,6792
2018-06-20T10:56:08.065Z,6300
2018-06-20T10:57:16.972Z,6868
2018-06-20T10:58:25.630Z,6304
2018-06-20T10:59:34.288Z,6064
2018-06-20T11:00:43.032Z,5944
2018-06-20T11:01:51.607Z,7460
2018-06-20T11:03:00.249Z,7908
2018-06-20T11:04:08.907Z,6308
2018-06-20T11:05:17.562Z,5760
2018-06-20T11:06:26.222Z,6836
2018-06-20T11:07:34.866Z,5764
2018-06-20T11:08:43.527Z,5880
2018-06-20T11:09:52.178Z,5208
2018-06-20T11:11:00.840Z,6212
2018-06-20T11:12:09.485Z,6512
2018-06-20T11:13:18.405Z,5368
2018-06-20T11:14:27.058Z,4744
2018-06-20T11:15:35.716Z,5100
2018-06-20T11:16:44.368Z,5732
2018-06-20T11:17:53.022Z,5888
2018-06-20T11:19:01.676Z,5824
2018-06-20T11:20:10.328Z,5512
2018-06-20T11:21:18.987Z,5212
2018-06-20T11:22:27.640Z,5652
2018-06-20T11:23:36.298Z,5836
2018-06-20T11:24:44.945Z,5852
2018-06-20T11:25:53.609Z,4140
2018-06-20T11:27:02.259Z,4956
2018-06-20T11:28:10.912Z,6620
2018-06-20T11:29:19.604Z,4964
2018-06-20T11:30:28.611Z,4500
2018-06-20T11:31:37.261Z,4324
2018-06-20T11:32:46.176Z,5920
2018-06-20T11:33:54.830Z,4888
2018-06-20T11:35:03.755Z,4536
2018-06-20T11:36:12.410Z,5960
2018-06-20T11:37:21.392Z,6024
2018-06-20T11:38:30.044Z,5980
2018-06-20T11:39:38.954Z,6324
2018-06-20T11:40:47.607Z,5544
2018-06-20T11:41:56.262Z,5128
2018-06-20T11:43:04.924Z,4372
2018-06-20T11:44:13.844Z,4512
2018-06-20T11:45:22.497Z,3712
2018-06-20T11:46:31.153Z,4972
2018-06-20T11:47:39.813Z,4288
2018-06-20T11:48:48.461Z,4504
2018-06-20T11:49:57.148Z,4424
2018-06-20T11:51:05.774Z,4216
2018-06-20T11:52:14.698Z,4420
2018-06-20T11:53:23.617Z,4400
2018-06-20T11:54:32.272Z,2812
2018-06-20T11:55:40.925Z,3044
2018-06-20T11:56:49.850Z,4624
2018-06-20T11:57:58.506Z,4760
2018-06-20T11:59:07.162Z,4832
2018-06-20T12:00:15.813Z,5248
2018-06-20T12:01:24.463Z,5324
2018-06-20T12:02:33.124Z,4468
2018-06-20T12:03:41.775Z,4128
2018-06-20T12:04:50.429Z,5460
2018-06-20T12:05:59.078Z,5452
2018-06-20T12:07:07.738Z,3572
2018-06-20T12:08:16.658Z,4784
2018-06-20T12:09:25.313Z,4856
2018-06-20T12:10:34.479Z,4668
2018-06-20T12:11:43.402Z,4696
2018-06-20T12:12:52.055Z,4472
2018-06-20T12:14:00.708Z,5020
2018-06-20T12:15:09.629Z,5428
2018-06-20T12:16:18.561Z,5296
2018-06-20T12:17:27.209Z,5064
2018-06-20T12:18:35.867Z,5384
2018-06-20T12:19:44.513Z,5372
2018-06-20T12:20:53.189Z,5296
2018-06-20T12:22:02.186Z,5132
2018-06-20T12:23:10.788Z,4540
2018-06-20T12:24:19.432Z,4472
2018-06-20T12:25:28.098Z,3924
2018-06-20T12:26:36.745Z,3636
2018-06-20T12:27:45.421Z,3408
2018-06-20T12:28:54.067Z,4192
2018-06-20T12:30:02.724Z,4436
2018-06-20T12:31:11.380Z,4876
2018-06-20T12:32:20.037Z,4664
2018-06-20T12:33:28.694Z,4232
2018-06-20T12:34:37.340Z,3944
2018-06-20T12:35:45.998Z,3808
2018-06-20T12:36:54.648Z,3744
2018-06-20T12:38:03.310Z,3672
2018-06-20T12:39:11.954Z,3652
2018-06-20T12:40:20.885Z,3796
2018-06-20T12:41:29.536Z,3852
2018-06-20T12:42:38.464Z,3956
2018-06-20T12:43:47.110Z,4020
2018-06-20T12:44:55.767Z,4112
2018-06-20T12:46:04.424Z,4140
2018-06-20T12:47:13.084Z,2380
2018-06-20T12:48:21.735Z,2272
2018-06-20T12:49:30.386Z,4356
2018-06-20T12:50:39.039Z,4412
2018-06-20T12:51:47.692Z,4388
2018-06-20T12:52:56.355Z,4276
2018-06-20T12:54:05.007Z,4072
2018-06-20T12:55:13.665Z,4284
2018-06-20T12:56:22.312Z,4160
2018-06-20T12:57:30.976Z,3908
2018-06-20T12:58:39.629Z,3868
2018-06-20T12:59:48.289Z,3828
2018-06-20T13:00:56.936Z,3808
2018-06-20T13:02:05.870Z,3748
2018-06-20T13:03:14.525Z,3768
2018-06-20T13:04:23.183Z,3900
2018-06-20T13:05:31.828Z,3892
2018-06-20T13:06:40.487Z,3964
2018-06-20T13:07:49.146Z,4036
2018-06-20T13:08:57.801Z,4276
2018-06-20T13:10:06.731Z,4324
2018-06-20T13:11:15.378Z,2684
2018-06-20T13:12:24.034Z,2940
2018-06-20T13:13:32.690Z,4112
2018-06-20T13:14:41.350Z,3284
2018-06-20T13:15:50.000Z,4060
2018-06-20T13:16:58.654Z,3872
2018-06-20T13:18:07.310Z,4344
2018-06-20T13:19:15.970Z,4468
2018-06-20T13:20:24.621Z,4780
2018-06-20T13:21:33.342Z,4828
2018-06-20T13:22:42.455Z,4732
2018-06-20T13:23:51.116Z,4504
2018-06-20T13:24:59.764Z,4136
2018-06-20T13:26:08.418Z,3980
2018-06-20T13:27:17.072Z,4120
2018-06-20T13:28:25.729Z,4180
2018-06-20T13:29:34.651Z,4424
2018-06-20T13:30:43.306Z,4340
2018-06-20T13:31:51.960Z,2428
2018-06-20T13:33:00.611Z,2752
2018-06-20T13:34:09.538Z,3932
2018-06-20T13:35:18.196Z,4000
2018-06-20T13:36:27.117Z,3128
2018-06-20T13:37:35.767Z,3956
2018-06-20T13:38:44.426Z,3920
2018-06-20T13:39:53.146Z,2832
2018-06-20T13:41:01.736Z,2624
2018-06-20T13:42:10.390Z,4360
2018-06-20T13:43:19.047Z,4600
2018-06-20T13:44:27.702Z,4372
2018-06-20T13:45:36.359Z,4740
2018-06-20T13:46:45.018Z,4976
2018-06-20T13:47:53.930Z,4828
2018-06-20T13:49:02.585Z,4432
2018-06-20T13:50:11.244Z,3956
2018-06-20T13:51:19.905Z,3208
2018-06-20T13:52:28.558Z,4036
2018-06-20T13:53:37.204Z,4256
2018-06-20T13:54:45.860Z,4368
2018-06-20T13:55:54.521Z,2560
2018-06-20T13:57:03.172Z,3860
2018-06-20T13:58:11.833Z,4400
2018-06-20T13:59:20.504Z,4296
2018-06-20T14:00:29.152Z,4788
2018-06-20T14:01:37.802Z,3696
2018-06-20T14:02:46.458Z,4192
2018-06-20T14:03:55.114Z,3856
2018-06-20T14:05:03.769Z,3608
2018-06-20T14:06:12.956Z,3508
2018-06-20T14:07:21.615Z,3736
2018-06-20T14:08:30.274Z,3732
2018-06-20T14:09:38.924Z,3840
2018-06-20T14:10:47.849Z,3696
2018-06-20T14:11:56.504Z,3740
2018-06-20T14:13:05.431Z,3544
2018-06-20T14:14:14.092Z,3444
2018-06-20T14:15:22.743Z,3364
2018-06-20T14:16:31.400Z,3008
2018-06-20T14:17:40.054Z,2940
2018-06-20T14:18:48.714Z,1920
2018-06-20T14:19:57.365Z,2144
2018-06-20T14:21:06.023Z,3776
2018-06-20T14:22:14.674Z,3940
2018-06-20T14:23:23.326Z,4256
2018-06-20T14:24:31.989Z,4264
2018-06-20T14:25:40.644Z,3556
2018-06-20T14:26:49.624Z,3764
2018-06-20T14:27:58.269Z,3880
2018-06-20T14:29:06.929Z,3716
2018-06-20T14:30:15.843Z,3476
2018-06-20T14:31:24.494Z,3424
2018-06-20T14:32:33.148Z,3764
2018-06-20T14:33:41.808Z,3812
2018-06-20T14:34:50.462Z,3408
2018-06-20T14:35:59.125Z,3184
2018-06-20T14:37:07.771Z,3132
2018-06-20T14:38:16.688Z,3096
2018-06-20T14:39:25.606Z,3004
2018-06-20T14:40:34.264Z,2932
2018-06-20T14:41:42.923Z,2896
2018-06-20T14:42:51.573Z,2872
2018-06-20T14:44:00.228Z,2972
2018-06-20T14:45:08.893Z,2968
2018-06-20T14:46:18.074Z,2996
2018-06-20T14:47:26.726Z,2912
2018-06-20T14:48:35.382Z,2864
2018-06-20T14:49:44.417Z,2820
2018-06-20T14:50:53.308Z,2804
2018-06-20T14:52:01.959Z,2764
2018-06-20T14:53:10.875Z,2728
2018-06-20T14:54:19.532Z,2756
2018-06-20T14:55:28.480Z,2772
2018-06-20T14:56:37.105Z,2688
2018-06-20T14:57:45.757Z,2088
2018-06-20T14:58:54.410Z,2636
2018-06-20T15:00:03.063Z,2688
2018-06-20T15:01:11.750Z,2644
2018-06-20T15:02:20.379Z,2628
2018-06-20T15:03:29.302Z,2644
2018-06-20T15:04:37.949Z,2680
2018-06-20T15:05:46.609Z,2612
2018-06-20T15:06:55.571Z,2600
2018-06-20T15:08:04.179Z,2548
2018-06-20T15:09:12.828Z,2536
2018-06-20T15:10:21.492Z,2448
2018-06-20T15:11:30.144Z,2496
2018-06-20T15:12:38.801Z,2444
2018-06-20T15:13:47.710Z,2480
2018-06-20T15:14:56.366Z,2448
2018-06-20T15:16:05.026Z,2400
2018-06-20T15:17:13.683Z,2428
2018-06-20T15:18:22.340Z,2440
2018-06-20T15:19:30.985Z,2432
2018-06-20T15:20:39.646Z,2404
2018-06-20T15:21:48.297Z,2380
2018-06-20T15:22:56.964Z,2360
2018-06-20T15:24:05.610Z,2348
2018-06-20T15:25:14.269Z,2348
2018-06-20T15:26:22.922Z,2328
2018-06-20T15:27:31.847Z,2304
2018-06-20T15:28:40.490Z,2296
2018-06-20T15:29:49.152Z,2288
2018-06-20T15:30:57.806Z,2268
2018-06-20T15:32:06.738Z,2268
2018-06-20T15:33:15.388Z,2280
2018-06-20T15:34:24.043Z,2260
2018-06-20T15:35:33.038Z,2268
2018-06-20T15:36:41.685Z,2288